Fedora — SLKU — position and weather

sailwx.info

Track history (hours):
 
Tides and Currents Weather Stations Pressure Air Temp Water Temp Dewpoint Dewpoint Depression Visibility Wind Speed Wind Dir Waves Ship Positions

Fedora

Last reported at 2014-Sep-17 20:15 UTC. Time now 2014-Oct-01 08:22 UTC.
Position N 43°51' W 006°26'.
Warning: this ship's position is 13 days out of date.

Length 228 m; draft 9.6 m.

Type: Cargo ship. MMSI: 266259000.

Date/timePositionNaut miles runAvg speedWind from/ knotsBaromVisibWave heightAir tempDewpointWater temp
2014-Sep-17 20:15N 43°51' W 006°26'1216.7
2014-Sep-17 19:32N 43°50' W 006°09'3316.5
2014-Sep-17 17:32N 43°48' W 005°24'1615.8
2014-Sep-17 16:33N 43°46' W 005°02'211 7.7
2014-Sep-16 13:15N 47°16' W 005°21'3116.6
2014-Sep-16 11:23N 47°46' W 005°34'2216.7
2014-Sep-16 10:03N 48°07' W 005°43'21314.6
2014-Sep-15 19:28N 50°23' W 001°31'1718.5
2014-Sep-15 18:33N 50°31' W 001°08'1313.3
2014-Sep-15 17:34N 50°43' W 000°60'1312.7
2014-Sep-15 16:34N 50°47' W 001°19'6 6.3
2014-Sep-15 15:32N 50°53' W 001°24'0 0.0
2014-Sep-15 14:33N 50°53' W 001°24'0 0.0
2014-Sep-15 13:32N 50°53' W 001°24'0 0.0
2014-Sep-15 12:32N 50°53' W 001°24'0 0.0
2014-Sep-15 11:24N 50°53' W 001°24'0 0.0
2014-Sep-15 10:30N 50°53' W 001°24'0 0.0
2014-Sep-15 09:33N 50°53' W 001°24'0 0.0
2014-Sep-15 08:34N 50°53' W 001°24'0 0.0
2014-Sep-15 07:33N 50°53' W 001°24'0 0.3
2014-Sep-15 06:33N 50°53' W 001°23'6 6.0
2014-Sep-15 05:33N 50°48' W 001°18'1413.7
2014-Sep-15 04:33N 50°42' W 000°58'9 8.7
2014-Sep-15 03:33N 50°34' W 000°53'4511.1
2014-Sep-14 23:31N 49°52' W 000°28'1111.3
2014-Sep-14 22:33N 49°42' W 000°22'1110.8
2014-Sep-14 21:33N 49°34' W 000°12'1212.0
2014-Sep-14 20:33N 49°29' E 000°05'3 3.2
2014-Sep-14 19:33N 49°29' E 000°10'2 1.4
2014-Sep-14 18:28N 49°28' E 000°13'0 0.0
2014-Sep-14 17:31N 49°28' E 000°13'0 0.0
2014-Sep-14 16:31N 49°28' E 000°13'0 0.0
2014-Sep-14 15:31N 49°28' E 000°13'0 0.0
2014-Sep-14 14:31N 49°28' E 000°13'1 1.1
2014-Sep-14 13:33N 49°29' E 000°11'1 1.0
2014-Sep-14 12:33N 49°28' E 000°10'9 8.7
2014-Sep-14 11:33N 49°31' W 000°03'8 8.3
2014-Sep-14 10:33N 49°37' W 000°11'9 9.1
2014-Sep-14 09:33N 49°46' W 000°09'4811.7
2014-Sep-14 05:27N 50°32' E 000°16'1517.2
2014-Sep-14 04:33N 50°37' E 000°39'1616.0
2014-Sep-14 03:33N 50°47' E 000°58'1514.6
2014-Sep-14 02:33N 50°58' E 001°15'1414.2
2014-Sep-14 01:33N 51°06' E 001°32'5814.4
2014-Sep-13 21:33N 51°24' E 003°01'9 8.6
2014-Sep-13 20:33N 51°20' E 003°13'0 0.1
2014-Sep-13 19:26N 51°20' E 003°13'1 1.3
2014-Sep-13 18:32N 51°19' E 003°14'0 0.0
2014-Sep-13 17:32N 51°19' E 003°14'0 0.0
2014-Sep-13 16:26N 51°19' E 003°14'0 0.0
2014-Sep-13 15:32N 51°19' E 003°14'0 0.0
2014-Sep-13 14:26N 51°19' E 003°14'0 0.0
2014-Sep-13 13:32N 51°19' E 003°14'0 0.0
2014-Sep-13 12:32N 51°19' E 003°14'0 0.0
2014-Sep-13 11:32N 51°19' E 003°14'0 0.0
2014-Sep-13 10:32N 51°19' E 003°14'0 0.0
2014-Sep-13 09:32N 51°19' E 003°14'0 0.0
2014-Sep-13 08:32N 51°19' E 003°14'0 0.0
2014-Sep-13 07:32N 51°19' E 003°14'0 0.0
2014-Sep-13 06:29N 51°19' E 003°14'0 0.0
2014-Sep-13 05:32N 51°19' E 003°14'0 0.0
2014-Sep-13 04:32N 51°19' E 003°14'0 0.0
2014-Sep-13 03:32N 51°19' E 003°14'0 0.0
2014-Sep-13 02:32N 51°19' E 003°14'0 0.0
2014-Sep-13 01:32N 51°19' E 003°14'0 0.0
2014-Sep-13 00:32N 51°19' E 003°14'1 1.2
2014-Sep-12 23:33N 51°20' E 003°13'1 0.6
2014-Sep-12 22:33N 51°21' E 003°13'9 9.1
2014-Sep-12 21:33N 51°23' E 002°58'1010.4
2014-Sep-12 20:33N 51°22' E 002°42'1211.7
2014-Sep-12 19:33N 51°34' E 002°42'1414.4
2014-Sep-12 18:33N 51°49' E 002°43'3414.1
2014-Sep-12 16:06N 52°19' E 003°09'813.9
2014-Sep-12 15:30N 52°26' E 003°17'1614.8
2014-Sep-12 14:26N 52°39' E 003°32'3216.3
2014-Sep-12 12:27N 53°02' E 004°09'1416.2
2014-Sep-12 11:33N 53°13' E 004°25'1715.5
2014-Sep-12 10:28N 53°28' E 004°37'1415.0
2014-Sep-12 09:33N 53°34' E 004°58'1414.3
2014-Sep-12 08:33N 53°37' E 005°21'1414.2
2014-Sep-12 07:33N 53°42' E 005°44'1515.1
2014-Sep-12 06:33N 53°47' E 006°08'1616.5
2014-Sep-12 05:33N 53°51' E 006°35'2316.9
2014-Sep-12 04:10N 53°56' E 007°13'1116.7
2014-Sep-12 03:31N 53°59' E 007°32'1313.9
2014-Sep-12 02:33N 53°52' E 007°51'1515.5
2014-Sep-12 01:33N 53°44' E 008°14'1414.2
2014-Sep-12 00:33N 53°35' E 008°32'1 1.0
2014-Sep-11 23:34N 53°34' E 008°33'0 0.4
2014-Sep-11 22:33N 53°35' E 008°33'0 0.0
2014-Sep-11 21:33N 53°35' E 008°33'0 0.0
2014-Sep-11 20:33N 53°35' E 008°33'0 0.0
2014-Sep-11 19:33N 53°35' E 008°33'0 0.0
2014-Sep-11 18:33N 53°35' E 008°33'0 0.0
2014-Sep-11 17:33N 53°35' E 008°33'0 0.0
2014-Sep-11 16:33N 53°35' E 008°33'0 0.0
2014-Sep-11 15:33N 53°35' E 008°33'0 0.0
2014-Sep-11 14:33N 53°35' E 008°33'0 0.0
2014-Sep-11 13:33N 53°35' E 008°33'0 0.0
2014-Sep-11 12:33N 53°35' E 008°33'0 0.0
2014-Sep-11 11:33N 53°35' E 008°33'0 0.0
2014-Sep-11 10:33N 53°35' E 008°33'0 0.0
2014-Sep-11 09:33N 53°35' E 008°33'0 0.0
2014-Sep-11 08:33N 53°35' E 008°33'0 0.0
2014-Sep-11 07:33N 53°35' E 008°33'0 0.0
2014-Sep-11 06:33N 53°35' E 008°33'0 0.0
2014-Sep-11 05:33N 53°35' E 008°33'0 0.0
2014-Sep-11 04:33N 53°35' E 008°33'0 0.0
2014-Sep-11 03:33N 53°35' E 008°33'0 0.0
2014-Sep-11 02:33N 53°35' E 008°33'0 0.0
2014-Sep-11 01:30N 53°35' E 008°33'0 0.0
2014-Sep-11 00:33N 53°35' E 008°33'0 0.0
2014-Sep-10 23:33N 53°35' E 008°33'0 0.0
2014-Sep-10 22:33N 53°35' E 008°33'0 0.0
2014-Sep-10 21:33N 53°35' E 008°33'0 0.0
2014-Sep-10 20:33N 53°35' E 008°33'0 0.0
2014-Sep-10 19:33N 53°35' E 008°33'0 0.0
2014-Sep-10 18:33N 53°35' E 008°33'0 0.0
2014-Sep-10 17:33N 53°35' E 008°33'0 0.0
2014-Sep-10 16:33N 53°35' E 008°33'0 0.0
2014-Sep-10 15:33N 53°35' E 008°33'0 0.5
2014-Sep-10 14:33N 53°34' E 008°33'1 0.6
2014-Sep-10 13:33N 53°35' E 008°32'1514.7
2014-Sep-10 12:34N 53°44' E 008°14'1616.0
2014-Sep-10 11:33N 53°53' E 007°51'0 0.3
2014-Sep-10 10:28N 53°54' E 007°51'0 0.0
2014-Sep-10 09:25N 53°54' E 007°51'0 0.0
2014-Sep-10 08:28N 53°54' E 007°51'0 0.0
2014-Sep-10 07:28N 53°54' E 007°51'0 0.0
2014-Sep-10 06:31N 53°54' E 007°51'0 0.0
2014-Sep-10 05:31N 53°54' E 007°51'0 0.0
2014-Sep-10 04:31N 53°54' E 007°51'0 0.0
2014-Sep-10 03:10N 53°54' E 007°51'0 0.0
2014-Sep-10 02:31N 53°54' E 007°51'0 0.0
2014-Sep-10 01:31N 53°54' E 007°51'0 0.0
2014-Sep-10 00:31N 53°54' E 007°51'0 0.0
2014-Sep-09 23:31N 53°54' E 007°51'0 0.0
2014-Sep-09 22:31N 53°54' E 007°51'0 0.0
2014-Sep-09 21:28N 53°54' E 007°51'0 0.0
2014-Sep-09 20:31N 53°54' E 007°51'0 0.0
2014-Sep-09 19:31N 53°54' E 007°51'0 0.0
2014-Sep-09 18:31N 53°54' E 007°51'0 0.0
2014-Sep-09 17:31N 53°54' E 007°51'0 0.0
2014-Sep-09 16:31N 53°54' E 007°51'0 0.0
2014-Sep-09 15:31N 53°54' E 007°51'0 0.0
2014-Sep-09 14:28N 53°54' E 007°51'0 0.0
2014-Sep-09 13:28N 53°54' E 007°51'0 0.0
2014-Sep-09 12:31N 53°54' E 007°51'0 0.0
2014-Sep-09 11:31N 53°54' E 007°51'0 0.0
2014-Sep-09 10:28N 53°54' E 007°51'0 0.0
2014-Sep-09 09:31N 53°54' E 007°51'0 0.0
2014-Sep-09 08:31N 53°54' E 007°51'0 0.0
2014-Sep-09 07:31N 53°54' E 007°51'0 0.0
2014-Sep-09 06:31N 53°54' E 007°51'0 0.0
2014-Sep-09 05:31N 53°54' E 007°51'0 0.0
2014-Sep-09 04:22N 53°54' E 007°51'0 0.1
2014-Sep-09 03:28N 53°54' E 007°51'0 0.0
2014-Sep-09 02:16N 53°54' E 007°51'0 0.0
2014-Sep-09 01:19N 53°54' E 007°51'0 0.0
2014-Sep-09 00:31N 53°54' E 007°51'0 0.0
2014-Sep-08 23:31N 53°54' E 007°51'0 0.1
2014-Sep-08 22:31N 53°54' E 007°51'0 0.0
2014-Sep-08 21:31N 53°54' E 007°51'2 2.3
2014-Sep-08 20:33N 53°53' E 007°47'3115.4
2014-Sep-08 18:31N 53°49' E 006°55'1615.7
2014-Sep-08 17:32N 53°45' E 006°29'1515.2
2014-Sep-08 16:33N 53°41' E 006°05'1514.8
2014-Sep-08 15:33N 53°37' E 005°41'1414.3
2014-Sep-08 14:33N 53°32' E 005°19'1413.7
2014-Sep-08 13:34N 53°27' E 004°57'1212.0
2014-Sep-08 12:34N 53°20' E 004°41'1312.7
2014-Sep-08 11:33N 53°09' E 004°31'1313.0
2014-Sep-08 10:32N 52°57' E 004°20'1313.2
2014-Sep-08 09:33N 52°46' E 004°10'1313.4
2014-Sep-08 08:33N 52°37' E 003°54'1313.1
2014-Sep-08 07:32N 52°28' E 003°38'4013.2
2014-Sep-08 04:32N 51°58' E 002°55'1414.6
2014-Sep-08 03:33N 51°46' E 002°42'1615.6
2014-Sep-08 02:33N 51°30' E 002°42'1110.7
2014-Sep-08 01:33N 51°23' E 002°54'1212.0
2014-Sep-08 00:33N 51°20' E 003°13'2 1.5
2014-Sep-07 23:33N 51°19' E 003°13'0 0.4
2014-Sep-07 22:27N 51°19' E 003°14'0 0.0
2014-Sep-07 21:32N 51°19' E 003°14'0 0.0
2014-Sep-07 20:31N 51°19' E 003°14'  
Track history (hours):
 
Tides and Currents Weather Stations Pressure Air Temp Water Temp Dewpoint Dewpoint Depression Visibility Wind Speed Wind Dir Waves Ship Positions

Fedora

Last reported at 2014-Sep-17 20:15 UTC. Time now 2014-Oct-01 08:22 UTC.
Position N 43°51' W 006°26'.
Warning: this ship's position is 13 days out of date.

Length 228 m; draft 9.6 m.

Type: Cargo ship. MMSI: 266259000.

Date/timePositionNaut miles runAvg speedWind from/ knotsBaromVisibWave heightAir tempDewpointWater temp
2014-Sep-17 20:15N 43°51' W 006°26'1216.7
2014-Sep-17 19:32N 43°50' W 006°09'3316.5
2014-Sep-17 17:32N 43°48' W 005°24'1615.8
2014-Sep-17 16:33N 43°46' W 005°02'211 7.7
2014-Sep-16 13:15N 47°16' W 005°21'3116.6
2014-Sep-16 11:23N 47°46' W 005°34'2216.7
2014-Sep-16 10:03N 48°07' W 005°43'21314.6
2014-Sep-15 19:28N 50°23' W 001°31'1718.5
2014-Sep-15 18:33N 50°31' W 001°08'1313.3
2014-Sep-15 17:34N 50°43' W 000°60'1312.7
2014-Sep-15 16:34N 50°47' W 001°19'6 6.3
2014-Sep-15 15:32N 50°53' W 001°24'0 0.0
2014-Sep-15 14:33N 50°53' W 001°24'0 0.0
2014-Sep-15 13:32N 50°53' W 001°24'0 0.0
2014-Sep-15 12:32N 50°53' W 001°24'0 0.0
2014-Sep-15 11:24N 50°53' W 001°24'0 0.0
2014-Sep-15 10:30N 50°53' W 001°24'0 0.0
2014-Sep-15 09:33N 50°53' W 001°24'0 0.0
2014-Sep-15 08:34N 50°53' W 001°24'0 0.0
2014-Sep-15 07:33N 50°53' W 001°24'0 0.3
2014-Sep-15 06:33N 50°53' W 001°23'6 6.0
2014-Sep-15 05:33N 50°48' W 001°18'1413.7
2014-Sep-15 04:33N 50°42' W 000°58'9 8.7
2014-Sep-15 03:33N 50°34' W 000°53'4511.1
2014-Sep-14 23:31N 49°52' W 000°28'1111.3
2014-Sep-14 22:33N 49°42' W 000°22'1110.8
2014-Sep-14 21:33N 49°34' W 000°12'1212.0
2014-Sep-14 20:33N 49°29' E 000°05'3 3.2
2014-Sep-14 19:33N 49°29' E 000°10'2 1.4
2014-Sep-14 18:28N 49°28' E 000°13'0 0.0
2014-Sep-14 17:31N 49°28' E 000°13'0 0.0
2014-Sep-14 16:31N 49°28' E 000°13'0 0.0
2014-Sep-14 15:31N 49°28' E 000°13'0 0.0
2014-Sep-14 14:31N 49°28' E 000°13'1 1.1
2014-Sep-14 13:33N 49°29' E 000°11'1 1.0
2014-Sep-14 12:33N 49°28' E 000°10'9 8.7
2014-Sep-14 11:33N 49°31' W 000°03'8 8.3
2014-Sep-14 10:33N 49°37' W 000°11'9 9.1
2014-Sep-14 09:33N 49°46' W 000°09'4811.7
2014-Sep-14 05:27N 50°32' E 000°16'1517.2
2014-Sep-14 04:33N 50°37' E 000°39'1616.0
2014-Sep-14 03:33N 50°47' E 000°58'1514.6
2014-Sep-14 02:33N 50°58' E 001°15'1414.2
2014-Sep-14 01:33N 51°06' E 001°32'5814.4
2014-Sep-13 21:33N 51°24' E 003°01'9 8.6
2014-Sep-13 20:33N 51°20' E 003°13'0 0.1
2014-Sep-13 19:26N 51°20' E 003°13'1 1.3
2014-Sep-13 18:32N 51°19' E 003°14'0 0.0
2014-Sep-13 17:32N 51°19' E 003°14'0 0.0
2014-Sep-13 16:26N 51°19' E 003°14'0 0.0
2014-Sep-13 15:32N 51°19' E 003°14'0 0.0
2014-Sep-13 14:26N 51°19' E 003°14'0 0.0
2014-Sep-13 13:32N 51°19' E 003°14'0 0.0
2014-Sep-13 12:32N 51°19' E 003°14'0 0.0
2014-Sep-13 11:32N 51°19' E 003°14'0 0.0
2014-Sep-13 10:32N 51°19' E 003°14'0 0.0
2014-Sep-13 09:32N 51°19' E 003°14'0 0.0
2014-Sep-13 08:32N 51°19' E 003°14'0 0.0
2014-Sep-13 07:32N 51°19' E 003°14'0 0.0
2014-Sep-13 06:29N 51°19' E 003°14'0 0.0
2014-Sep-13 05:32N 51°19' E 003°14'0 0.0
2014-Sep-13 04:32N 51°19' E 003°14'0 0.0
2014-Sep-13 03:32N 51°19' E 003°14'0 0.0
2014-Sep-13 02:32N 51°19' E 003°14'0 0.0
2014-Sep-13 01:32N 51°19' E 003°14'0 0.0
2014-Sep-13 00:32N 51°19' E 003°14'1 1.2
2014-Sep-12 23:33N 51°20' E 003°13'1 0.6
2014-Sep-12 22:33N 51°21' E 003°13'9 9.1
2014-Sep-12 21:33N 51°23' E 002°58'1010.4
2014-Sep-12 20:33N 51°22' E 002°42'1211.7
2014-Sep-12 19:33N 51°34' E 002°42'1414.4
2014-Sep-12 18:33N 51°49' E 002°43'3414.1
2014-Sep-12 16:06N 52°19' E 003°09'813.9
2014-Sep-12 15:30N 52°26' E 003°17'1614.8
2014-Sep-12 14:26N 52°39' E 003°32'3216.3
2014-Sep-12 12:27N 53°02' E 004°09'1416.2
2014-Sep-12 11:33N 53°13' E 004°25'1715.5
2014-Sep-12 10:28N 53°28' E 004°37'1415.0
2014-Sep-12 09:33N 53°34' E 004°58'1414.3
2014-Sep-12 08:33N 53°37' E 005°21'1414.2
2014-Sep-12 07:33N 53°42' E 005°44'1515.1
2014-Sep-12 06:33N 53°47' E 006°08'1616.5
2014-Sep-12 05:33N 53°51' E 006°35'2316.9
2014-Sep-12 04:10N 53°56' E 007°13'1116.7
2014-Sep-12 03:31N 53°59' E 007°32'1313.9
2014-Sep-12 02:33N 53°52' E 007°51'1515.5
2014-Sep-12 01:33N 53°44' E 008°14'1414.2
2014-Sep-12 00:33N 53°35' E 008°32'1 1.0
2014-Sep-11 23:34N 53°34' E 008°33'0 0.4
2014-Sep-11 22:33N 53°35' E 008°33'0 0.0
2014-Sep-11 21:33N 53°35' E 008°33'0 0.0
2014-Sep-11 20:33N 53°35' E 008°33'0 0.0
2014-Sep-11 19:33N 53°35' E 008°33'0 0.0
2014-Sep-11 18:33N 53°35' E 008°33'0 0.0
2014-Sep-11 17:33N 53°35' E 008°33'0 0.0
2014-Sep-11 16:33N 53°35' E 008°33'0 0.0
2014-Sep-11 15:33N 53°35' E 008°33'0 0.0
2014-Sep-11 14:33N 53°35' E 008°33'0 0.0
2014-Sep-11 13:33N 53°35' E 008°33'0 0.0
2014-Sep-11 12:33N 53°35' E 008°33'0 0.0
2014-Sep-11 11:33N 53°35' E 008°33'0 0.0
2014-Sep-11 10:33N 53°35' E 008°33'0 0.0
2014-Sep-11 09:33N 53°35' E 008°33'0 0.0
2014-Sep-11 08:33N 53°35' E 008°33'0 0.0
2014-Sep-11 07:33N 53°35' E 008°33'0 0.0
2014-Sep-11 06:33N 53°35' E 008°33'0 0.0
2014-Sep-11 05:33N 53°35' E 008°33'0 0.0
2014-Sep-11 04:33N 53°35' E 008°33'0 0.0
2014-Sep-11 03:33N 53°35' E 008°33'0 0.0
2014-Sep-11 02:33N 53°35' E 008°33'0 0.0
2014-Sep-11 01:30N 53°35' E 008°33'0 0.0
2014-Sep-11 00:33N 53°35' E 008°33'0 0.0
2014-Sep-10 23:33N 53°35' E 008°33'0 0.0
2014-Sep-10 22:33N 53°35' E 008°33'0 0.0
2014-Sep-10 21:33N 53°35' E 008°33'0 0.0
2014-Sep-10 20:33N 53°35' E 008°33'0 0.0
2014-Sep-10 19:33N 53°35' E 008°33'0 0.0
2014-Sep-10 18:33N 53°35' E 008°33'0 0.0
2014-Sep-10 17:33N 53°35' E 008°33'0 0.0
2014-Sep-10 16:33N 53°35' E 008°33'0 0.0
2014-Sep-10 15:33N 53°35' E 008°33'0 0.5
2014-Sep-10 14:33N 53°34' E 008°33'1 0.6
2014-Sep-10 13:33N 53°35' E 008°32'1514.7
2014-Sep-10 12:34N 53°44' E 008°14'1616.0
2014-Sep-10 11:33N 53°53' E 007°51'0 0.3
2014-Sep-10 10:28N 53°54' E 007°51'0 0.0
2014-Sep-10 09:25N 53°54' E 007°51'0 0.0
2014-Sep-10 08:28N 53°54' E 007°51'0 0.0
2014-Sep-10 07:28N 53°54' E 007°51'0 0.0
2014-Sep-10 06:31N 53°54' E 007°51'0 0.0
2014-Sep-10 05:31N 53°54' E 007°51'0 0.0
2014-Sep-10 04:31N 53°54' E 007°51'0 0.0
2014-Sep-10 03:10N 53°54' E 007°51'0 0.0
2014-Sep-10 02:31N 53°54' E 007°51'0 0.0
2014-Sep-10 01:31N 53°54' E 007°51'0 0.0
2014-Sep-10 00:31N 53°54' E 007°51'0 0.0
2014-Sep-09 23:31N 53°54' E 007°51'0 0.0
2014-Sep-09 22:31N 53°54' E 007°51'0 0.0
2014-Sep-09 21:28N 53°54' E 007°51'0 0.0
2014-Sep-09 20:31N 53°54' E 007°51'0 0.0
2014-Sep-09 19:31N 53°54' E 007°51'0 0.0
2014-Sep-09 18:31N 53°54' E 007°51'0 0.0
2014-Sep-09 17:31N 53°54' E 007°51'0 0.0
2014-Sep-09 16:31N 53°54' E 007°51'0 0.0
2014-Sep-09 15:31N 53°54' E 007°51'0 0.0
2014-Sep-09 14:28N 53°54' E 007°51'0 0.0
2014-Sep-09 13:28N 53°54' E 007°51'0 0.0
2014-Sep-09 12:31N 53°54' E 007°51'0 0.0
2014-Sep-09 11:31N 53°54' E 007°51'0 0.0
2014-Sep-09 10:28N 53°54' E 007°51'0 0.0
2014-Sep-09 09:31N 53°54' E 007°51'0 0.0
2014-Sep-09 08:31N 53°54' E 007°51'0 0.0
2014-Sep-09 07:31N 53°54' E 007°51'0 0.0
2014-Sep-09 06:31N 53°54' E 007°51'0 0.0
2014-Sep-09 05:31N 53°54' E 007°51'0 0.0
2014-Sep-09 04:22N 53°54' E 007°51'0 0.1
2014-Sep-09 03:28N 53°54' E 007°51'0 0.0
2014-Sep-09 02:16N 53°54' E 007°51'0 0.0
2014-Sep-09 01:19N 53°54' E 007°51'0 0.0
2014-Sep-09 00:31N 53°54' E 007°51'0 0.0
2014-Sep-08 23:31N 53°54' E 007°51'0 0.1
2014-Sep-08 22:31N 53°54' E 007°51'0 0.0
2014-Sep-08 21:31N 53°54' E 007°51'2 2.3
2014-Sep-08 20:33N 53°53' E 007°47'3115.4
2014-Sep-08 18:31N 53°49' E 006°55'1615.7
2014-Sep-08 17:32N 53°45' E 006°29'1515.2
2014-Sep-08 16:33N 53°41' E 006°05'1514.8
2014-Sep-08 15:33N 53°37' E 005°41'1414.3
2014-Sep-08 14:33N 53°32' E 005°19'1413.7
2014-Sep-08 13:34N 53°27' E 004°57'1212.0
2014-Sep-08 12:34N 53°20' E 004°41'1312.7
2014-Sep-08 11:33N 53°09' E 004°31'1313.0
2014-Sep-08 10:32N 52°57' E 004°20'1313.2
2014-Sep-08 09:33N 52°46' E 004°10'1313.4
2014-Sep-08 08:33N 52°37' E 003°54'1313.1
2014-Sep-08 07:32N 52°28' E 003°38'4013.2
2014-Sep-08 04:32N 51°58' E 002°55'1414.6
2014-Sep-08 03:33N 51°46' E 002°42'1615.6
2014-Sep-08 02:33N 51°30' E 002°42'1110.7
2014-Sep-08 01:33N 51°23' E 002°54'1212.0
2014-Sep-08 00:33N 51°20' E 003°13'2 1.5
2014-Sep-07 23:33N 51°19' E 003°13'0 0.4
2014-Sep-07 22:27N 51°19' E 003°14'0 0.0
2014-Sep-07 21:32N 51°19' E 003°14'0 0.0
2014-Sep-07 20:31N 51°19' E 003°14'  

Dump ship's entire track history